createdAt,value
2018-07-25T00:01:37.989Z,99798.41
2018-07-25T00:04:07.813Z,99797.01
2018-07-25T00:06:43.737Z,99800.98
2018-07-25T00:09:13.427Z,99795.87
2018-07-25T00:11:43.120Z,99801.53
2018-07-25T00:14:12.886Z,99802.72
2018-07-25T00:16:42.617Z,99803.86
2018-07-25T00:19:12.292Z,99801.23
2018-07-25T00:21:41.980Z,99801.31
2018-07-25T00:24:11.712Z,99800.58
2018-07-25T00:26:41.400Z,99803.83
2018-07-25T00:29:11.125Z,99806.45
2018-07-25T00:31:40.888Z,99807.86
2018-07-25T00:34:10.580Z,99800.24
2018-07-25T00:36:40.276Z,99797.44
2018-07-25T00:39:10.371Z,99796.81
2018-07-25T00:41:40.124Z,99800.13
2018-07-25T00:44:09.904Z,99792.12
2018-07-25T00:46:40.084Z,99795.89
2018-07-25T00:49:09.809Z,99796.63
2018-07-25T00:51:39.497Z,99791.34
2018-07-25T00:54:09.289Z,99793.07
2018-07-25T00:56:39.011Z,99789.53
2018-07-25T00:59:08.880Z,99793.20
2018-07-25T01:01:38.616Z,99794.02
2018-07-25T01:04:08.308Z,99795.30
2018-07-25T01:06:38.012Z,99795.21
2018-07-25T01:09:10.044Z,99793.80
2018-07-25T01:11:39.771Z,99792.61
2018-07-25T01:14:09.515Z,99794.61
2018-07-25T01:16:39.884Z,99797.08
2018-07-25T01:19:09.614Z,99795.63
2018-07-25T01:21:39.324Z,99793.01
2018-07-25T01:24:08.995Z,99797.58
2018-07-25T01:26:38.716Z,99798.33
2018-07-25T01:29:08.411Z,99796.02
2018-07-25T01:31:38.164Z,99804.11
2018-07-25T01:34:07.856Z,99805.80
2018-07-25T01:36:37.567Z,99806.45
2018-07-25T01:39:09.074Z,99810.83
2018-07-25T01:41:38.872Z,99806.84
2018-07-25T01:44:09.092Z,99804.88
2018-07-25T01:46:38.852Z,99801.56
2018-07-25T01:49:08.560Z,99803.61
2018-07-25T01:51:38.296Z,99803.56
2018-07-25T01:54:08.011Z,99801.38
2018-07-25T01:56:37.709Z,99805.02
2018-07-25T01:59:07.459Z,99805.69
2018-07-25T02:01:37.155Z,99807.30
2018-07-25T02:04:06.883Z,99811.14
2018-07-25T02:06:36.625Z,99818.45
2018-07-25T02:09:09.791Z,99810.13
2018-07-25T02:11:39.743Z,99815.47
2018-07-25T02:14:09.463Z,99815.66
2018-07-25T02:16:39.211Z,99820.27
2018-07-25T02:19:08.911Z,99823.39
2018-07-25T02:21:38.632Z,99829.01
2018-07-25T02:24:08.315Z,99819.36
2018-07-25T02:26:38.023Z,99825.74
2018-07-25T02:29:07.824Z,99824.52
2018-07-25T02:31:37.539Z,99833.23
2018-07-25T02:34:12.389Z,99832.95
2018-07-25T02:36:42.117Z,99830.34
2018-07-25T02:39:13.605Z,99839.63
2018-07-25T02:41:44.371Z,99841.41
2018-07-25T02:44:14.463Z,99847.80
2018-07-25T02:46:44.341Z,99849.98
2018-07-25T02:49:14.025Z,99850.72
2018-07-25T02:51:43.753Z,99851.11
2018-07-25T02:54:13.479Z,99854.67
2018-07-25T02:56:43.169Z,99851.89
2018-07-25T02:59:12.822Z,99851.77
2018-07-25T03:01:42.591Z,99853.59
2018-07-25T03:04:12.299Z,99857.67
2018-07-25T03:06:41.969Z,99855.67
2018-07-25T03:09:11.814Z,99857.92
2018-07-25T03:11:41.808Z,99861.00
2018-07-25T03:14:11.620Z,99861.81
2018-07-25T03:16:41.309Z,99865.39
2018-07-25T03:19:11.103Z,99866.45
2018-07-25T03:21:40.848Z,99863.30
2018-07-25T03:24:10.566Z,99862.30
2018-07-25T03:26:40.489Z,99859.01
2018-07-25T03:29:10.171Z,99857.16
2018-07-25T03:31:39.968Z,99864.66
2018-07-25T03:34:09.620Z,99861.06
2018-07-25T03:36:39.332Z,99862.97
2018-07-25T03:39:09.138Z,99866.09
2018-07-25T03:41:38.824Z,99863.79
2018-07-25T03:44:08.499Z,99861.88
2018-07-25T03:46:38.226Z,99865.45
2018-07-25T03:49:07.934Z,99864.66
2018-07-25T03:51:37.675Z,99867.99
2018-07-25T03:54:07.471Z,99870.59
2018-07-25T03:56:37.180Z,99866.69
2018-07-25T03:59:06.975Z,99869.23
2018-07-25T04:01:36.737Z,99874.38
2018-07-25T04:04:06.497Z,99876.46
2018-07-25T04:06:36.223Z,99867.86
2018-07-25T04:09:08.629Z,99870.89
2018-07-25T04:11:38.623Z,99870.11
2018-07-25T04:14:08.350Z,99874.01
2018-07-25T04:16:38.073Z,99875.44
2018-07-25T04:19:07.840Z,99875.16
2018-07-25T04:21:37.523Z,99881.13
2018-07-25T04:24:07.295Z,99887.58
2018-07-25T04:26:37.412Z,99888.36
2018-07-25T04:29:07.138Z,99885.33
2018-07-25T04:31:36.846Z,99887.13
2018-07-25T04:34:06.611Z,99884.22
2018-07-25T04:36:36.332Z,99888.24
2018-07-25T04:39:09.140Z,99897.95
2018-07-25T04:41:39.079Z,99894.98
2018-07-25T04:44:09.106Z,99900.20
2018-07-25T04:46:39.270Z,99904.22
2018-07-25T04:49:09.201Z,99911.88
2018-07-25T04:51:38.904Z,99912.82
2018-07-25T04:54:08.674Z,99915.39
2018-07-25T04:56:38.412Z,99917.16
2018-07-25T04:59:08.159Z,99926.80
2018-07-25T05:01:37.823Z,99926.31
2018-07-25T05:04:07.740Z,99932.86
2018-07-25T05:06:37.502Z,99922.88
2018-07-25T05:09:09.060Z,99920.14
2018-07-25T05:11:38.905Z,99924.08
2018-07-25T05:14:08.740Z,99925.09
2018-07-25T05:16:38.467Z,99926.02
2018-07-25T05:19:08.093Z,99928.14
2018-07-25T05:21:39.020Z,99925.95
2018-07-25T05:24:11.784Z,99930.89
2018-07-25T05:26:41.492Z,99928.05
2018-07-25T05:29:11.108Z,99931.63
2018-07-25T05:31:40.767Z,99940.43
2018-07-25T05:34:10.482Z,99941.27
2018-07-25T05:36:40.146Z,99942.42
2018-07-25T05:39:11.991Z,99938.77
2018-07-25T05:41:42.289Z,99936.59
2018-07-25T05:44:12.032Z,99940.34
2018-07-25T05:46:41.660Z,99945.72
2018-07-25T05:49:11.353Z,99936.89
2018-07-25T05:51:41.131Z,99940.33
2018-07-25T05:54:10.832Z,99934.47
2018-07-25T05:56:40.520Z,99940.64
2018-07-25T05:59:10.252Z,99947.85
2018-07-25T06:01:39.909Z,99945.48
2018-07-25T06:04:09.556Z,99948.05
2018-07-25T06:06:39.276Z,99938.38
2018-07-25T06:09:09.961Z,99946.45
2018-07-25T06:11:40.208Z,99945.70
2018-07-25T06:14:09.969Z,99943.00
2018-07-25T06:16:39.699Z,99949.31
2018-07-25T06:19:09.404Z,99955.49
2018-07-25T06:21:39.065Z,99951.41
2018-07-25T06:24:08.711Z,99948.99
2018-07-25T06:26:38.413Z,99948.22
2018-07-25T06:29:08.071Z,99948.23
2018-07-25T06:31:37.858Z,99949.11
2018-07-25T06:34:08.156Z,99953.23
2018-07-25T06:36:38.315Z,99954.02
2018-07-25T06:39:10.880Z,99952.34
2018-07-25T06:41:40.696Z,99953.98
2018-07-25T06:44:10.804Z,99953.95
2018-07-25T06:46:40.473Z,99953.14
2018-07-25T06:49:10.386Z,99955.83
2018-07-25T06:51:40.104Z,99963.50
2018-07-25T06:54:09.770Z,99964.22
2018-07-25T06:56:39.478Z,99963.20
2018-07-25T06:59:09.145Z,99967.52
2018-07-25T07:01:38.803Z,99968.41
2018-07-25T07:04:08.537Z,99964.61
2018-07-25T07:06:38.227Z,99969.89
2018-07-25T07:09:09.258Z,99965.86
2018-07-25T07:11:38.924Z,99972.57
2018-07-25T07:14:08.594Z,99970.98
2018-07-25T07:16:38.280Z,99970.20
2018-07-25T07:19:07.965Z,99972.16
2018-07-25T07:21:37.616Z,99974.90
2018-07-25T07:24:07.469Z,99974.61
2018-07-25T07:26:37.156Z,99973.19
2018-07-25T07:29:07.261Z,99978.97
2018-07-25T07:31:36.916Z,99967.91
2018-07-25T07:34:06.635Z,99973.88
2018-07-25T07:36:36.331Z,99970.50
2018-07-25T07:39:09.139Z,99973.47
2018-07-25T07:41:38.984Z,99976.15
2018-07-25T07:44:08.687Z,99975.05
2018-07-25T07:46:38.702Z,99975.49
2018-07-25T07:49:08.825Z,99973.49
2018-07-25T07:51:38.533Z,99975.64
2018-07-25T07:54:08.536Z,99971.17
2018-07-25T07:56:38.227Z,99969.91
2018-07-25T07:59:07.873Z,99970.37
2018-07-25T08:01:37.561Z,99965.62
2018-07-25T08:04:07.401Z,99968.45
2018-07-25T08:06:37.141Z,99968.66
2018-07-25T08:09:09.540Z,99969.77
2018-07-25T08:11:39.226Z,99967.78
2018-07-25T08:14:08.860Z,99971.20
2018-07-25T08:16:38.634Z,99969.17
2018-07-25T08:19:08.881Z,99966.45
2018-07-25T08:21:38.614Z,99966.39
2018-07-25T08:24:08.281Z,99964.98
2018-07-25T08:26:38.004Z,99963.30
2018-07-25T08:29:07.745Z,99960.16
2018-07-25T08:31:37.881Z,99961.19
2018-07-25T08:34:07.683Z,99958.56
2018-07-25T08:36:37.379Z,99961.73
2018-07-25T08:39:09.578Z,99965.69
2018-07-25T08:41:39.317Z,99965.60
2018-07-25T08:44:09.003Z,99958.56
2018-07-25T08:46:38.716Z,99960.62
2018-07-25T08:49:08.422Z,99965.41
2018-07-25T08:51:38.147Z,99960.67
2018-07-25T08:54:07.832Z,99963.81
2018-07-25T08:56:37.533Z,99963.61
2018-07-25T08:59:07.276Z,99956.73
2018-07-25T09:01:36.972Z,99956.81
2018-07-25T09:04:06.842Z,99961.40
2018-07-25T09:06:36.560Z,99963.87
2018-07-25T09:09:08.975Z,99961.05
2018-07-25T09:11:38.700Z,99960.41
2018-07-25T09:14:08.743Z,99960.92
2018-07-25T09:16:38.479Z,99961.68
2018-07-25T09:19:08.196Z,99962.45
2018-07-25T09:21:37.864Z,99965.97
2018-07-25T09:24:07.985Z,99961.27
2018-07-25T09:26:37.651Z,99966.86
2018-07-25T09:29:07.403Z,99965.42
2018-07-25T09:31:37.125Z,99964.22
2018-07-25T09:34:06.952Z,99959.80
2018-07-25T09:36:36.639Z,99957.73
2018-07-25T09:39:09.441Z,99955.33
2018-07-25T09:41:39.176Z,99956.88
2018-07-25T09:44:08.863Z,99955.89
2018-07-25T09:46:38.583Z,99949.48
2018-07-25T09:49:09.567Z,99953.45
2018-07-25T09:51:39.302Z,99952.88
2018-07-25T09:54:09.376Z,99949.89
2018-07-25T09:56:39.138Z,99952.95
2018-07-25T09:59:09.094Z,99952.25
2018-07-25T10:01:38.801Z,99955.80
2018-07-25T10:04:08.556Z,99953.70
2018-07-25T10:06:38.515Z,99950.13
2018-07-25T10:09:10.528Z,99954.70
2018-07-25T10:11:40.504Z,99948.72
2018-07-25T10:14:10.262Z,99952.03
2018-07-25T10:16:40.506Z,99944.56
2018-07-25T10:19:10.264Z,99946.88
2018-07-25T10:21:39.972Z,99936.52
2018-07-25T10:24:10.029Z,99935.86
2018-07-25T10:26:39.786Z,99937.59
2018-07-25T10:29:09.835Z,99937.38
2018-07-25T10:31:39.926Z,99928.66
2018-07-25T10:34:09.987Z,99929.50
2018-07-25T10:36:39.738Z,99938.13
2018-07-25T10:39:10.579Z,99937.16
2018-07-25T10:41:40.248Z,99936.15
2018-07-25T10:44:09.969Z,99926.61
2018-07-25T10:46:39.974Z,99924.69
2018-07-25T10:49:09.744Z,99923.77
2018-07-25T10:51:39.476Z,99929.69
2018-07-25T10:54:09.248Z,99922.31
2018-07-25T10:56:39.001Z,99919.64
2018-07-25T10:59:08.756Z,99916.71
2018-07-25T11:01:38.490Z,99909.51
2018-07-25T11:04:08.233Z,99922.23
2018-07-25T11:06:37.958Z,99919.94
2018-07-25T11:09:08.805Z,99912.20
2018-07-25T11:11:38.760Z,99912.72
2018-07-25T11:14:08.527Z,99920.64
2018-07-25T11:16:38.225Z,99918.11
2018-07-25T11:19:07.915Z,99911.41
2018-07-25T11:21:37.657Z,99910.18
2018-07-25T11:24:07.361Z,99909.16
2018-07-25T11:26:37.085Z,99910.77
2018-07-25T11:29:06.784Z,99911.19
2018-07-25T11:31:36.463Z,99906.80
2018-07-25T11:34:06.670Z,99901.55
2018-07-25T11:36:36.344Z,99902.03
2018-07-25T11:39:09.572Z,99909.02
2018-07-25T11:41:39.901Z,99902.91
2018-07-25T11:44:09.672Z,99897.34
2018-07-25T11:46:39.349Z,99896.14
2018-07-25T11:49:09.195Z,99897.87
2018-07-25T11:51:38.855Z,99890.67
2018-07-25T11:54:08.918Z,99892.20
2018-07-25T11:56:38.673Z,99894.55
2018-07-25T11:59:08.359Z,99896.94
2018-07-25T12:01:38.212Z,99887.09
2018-07-25T12:04:08.345Z,99884.46
2018-07-25T12:06:38.124Z,99879.17
2018-07-25T12:09:09.922Z,99883.66
2018-07-25T12:11:46.736Z,99880.91
2018-07-25T12:14:17.955Z,99875.53
2018-07-25T12:16:47.753Z,99880.68
2018-07-25T12:19:17.913Z,99885.30
2018-07-25T12:21:47.660Z,99876.33
2018-07-25T12:24:17.368Z,99878.70
2018-07-25T12:26:47.148Z,99876.75
2018-07-25T12:29:16.865Z,99869.85
2018-07-25T12:31:46.595Z,99872.73
2018-07-25T12:34:16.297Z,99882.55
2018-07-25T12:36:46.060Z,99867.86
2018-07-25T12:39:15.775Z,99869.17
2018-07-25T12:41:45.555Z,99868.87
2018-07-25T12:44:15.254Z,99872.33
2018-07-25T12:46:45.355Z,99870.18
2018-07-25T12:49:15.109Z,99877.60
2018-07-25T12:51:45.178Z,99864.20
2018-07-25T12:54:14.936Z,99867.94
2018-07-25T12:56:44.664Z,99867.19
2018-07-25T12:59:14.864Z,99858.23
2018-07-25T13:01:44.645Z,99855.84
2018-07-25T13:04:14.389Z,99851.28
2018-07-25T13:06:44.172Z,99846.44
2018-07-25T13:09:14.367Z,99854.20
2018-07-25T13:11:43.994Z,99845.80
2018-07-25T13:14:13.741Z,99848.17
2018-07-25T13:16:43.484Z,99850.30
2018-07-25T13:19:13.259Z,99846.56
2018-07-25T13:21:43.404Z,99841.30
2018-07-25T13:24:13.145Z,99836.24
2018-07-25T13:26:42.865Z,99842.56
2018-07-25T13:29:12.572Z,99839.45
2018-07-25T13:31:42.344Z,99840.30
2018-07-25T13:34:12.042Z,99841.20
2018-07-25T13:36:41.814Z,99835.75
2018-07-25T13:39:11.516Z,99833.98
2018-07-25T13:41:41.437Z,99823.52
2018-07-25T13:44:11.197Z,99821.30
2018-07-25T13:46:40.900Z,99817.66
2018-07-25T13:49:10.885Z,99816.61
2018-07-25T13:51:41.135Z,99815.39
2018-07-25T13:54:10.858Z,99809.80
2018-07-25T13:56:40.549Z,99810.36
2018-07-25T13:59:10.305Z,99816.06
2018-07-25T14:01:40.092Z,99808.30
2018-07-25T14:04:09.804Z,99800.92
2018-07-25T14:06:39.586Z,99804.99
2018-07-25T14:09:11.096Z,99802.56
2018-07-25T14:11:41.291Z,99802.52
2018-07-25T14:14:11.460Z,99806.34
2018-07-25T14:16:41.225Z,99802.20
2018-07-25T14:19:10.980Z,99797.30
2018-07-25T14:21:41.117Z,99787.28
2018-07-25T14:24:10.836Z,99787.16
2018-07-25T14:26:40.586Z,99789.86
2018-07-25T14:29:10.393Z,99784.14
2018-07-25T14:31:40.003Z,99788.78
2018-07-25T14:34:09.764Z,99789.02
2018-07-25T14:36:39.753Z,99789.42
2018-07-25T14:39:10.936Z,99786.73
2018-07-25T14:41:41.205Z,99794.84
2018-07-25T14:44:11.391Z,99792.66
2018-07-25T14:46:41.290Z,99792.92
2018-07-25T14:49:10.963Z,99788.85
2018-07-25T14:51:40.680Z,99786.13
2018-07-25T14:54:10.467Z,99785.86
2018-07-25T14:56:40.205Z,99784.16
2018-07-25T14:59:09.921Z,99780.77
2018-07-25T15:01:39.740Z,99776.58
2018-07-25T15:04:09.458Z,99777.38
2018-07-25T15:06:39.276Z,99780.27
2018-07-25T15:09:10.155Z,99772.30
2018-07-25T15:11:40.126Z,99768.20
2018-07-25T15:14:10.501Z,99770.66
2018-07-25T15:16:40.270Z,99766.08
2018-07-25T15:19:10.329Z,99761.09
2018-07-25T15:21:40.551Z,99757.86
2018-07-25T15:24:10.674Z,99758.83
2018-07-25T15:26:41.043Z,99764.25
2018-07-25T15:29:10.777Z,99770.13
2018-07-25T15:31:40.453Z,99764.16
2018-07-25T15:34:10.449Z,99764.44
2018-07-25T15:36:45.942Z,99759.32
2018-07-25T15:39:19.400Z,99764.41
2018-07-25T15:41:50.859Z,99767.19
2018-07-25T15:44:21.761Z,99766.56
2018-07-25T15:46:51.510Z,99771.42
2018-07-25T15:49:21.392Z,99767.13
2018-07-25T15:51:51.108Z,99780.28
2018-07-25T15:54:20.788Z,99781.27
2018-07-25T15:56:50.655Z,99788.05
2018-07-25T15:59:20.395Z,99782.60
2018-07-25T16:01:50.206Z,99779.41
2018-07-25T16:04:19.843Z,99780.33
2018-07-25T16:06:49.659Z,99778.91
2018-07-25T16:09:19.408Z,99777.22
2018-07-25T16:11:49.198Z,99773.60
2018-07-25T16:14:18.879Z,99774.92
2018-07-25T16:16:48.617Z,99767.02
2018-07-25T16:19:18.333Z,99775.46
2018-07-25T16:21:48.043Z,99772.94
2018-07-25T16:24:18.018Z,99775.72
2018-07-25T16:26:47.740Z,99771.19
2018-07-25T16:29:17.420Z,99771.12
2018-07-25T16:31:47.209Z,99773.20
2018-07-25T16:34:16.982Z,99774.70
2018-07-25T16:36:46.667Z,99776.92
2018-07-25T16:39:18.445Z,99772.37
2018-07-25T16:41:48.253Z,99773.75
2018-07-25T16:44:17.963Z,99771.56
2018-07-25T16:46:47.727Z,99771.89
2018-07-25T16:49:17.442Z,99768.93
2018-07-25T16:51:47.188Z,99776.20
2018-07-25T16:54:16.922Z,99774.15
2018-07-25T16:56:46.702Z,99775.61
2018-07-25T16:59:16.504Z,99774.38
2018-07-25T17:01:46.218Z,99773.52
2018-07-25T17:04:15.954Z,99776.77
2018-07-25T17:06:45.728Z,99776.61
2018-07-25T17:09:15.434Z,99781.14
2018-07-25T17:11:45.262Z,99786.73
2018-07-25T17:14:15.717Z,99784.88
2018-07-25T17:16:45.462Z,99786.65
2018-07-25T17:19:15.172Z,99786.22
2018-07-25T17:21:44.908Z,99788.75
2018-07-25T17:24:14.743Z,99788.68
2018-07-25T17:26:44.452Z,99787.62
2018-07-25T17:29:14.188Z,99797.14
2018-07-25T17:31:43.912Z,99794.55
2018-07-25T17:34:13.627Z,99797.45
2018-07-25T17:36:43.378Z,99795.87
2018-07-25T17:39:13.122Z,99793.23
2018-07-25T17:41:43.197Z,99802.94
2018-07-25T17:44:12.929Z,99802.52
2018-07-25T17:46:42.681Z,99794.49
2018-07-25T17:49:12.804Z,99804.91
2018-07-25T17:51:42.565Z,99801.36
2018-07-25T17:54:12.314Z,99807.67
2018-07-25T17:56:42.328Z,99806.55
2018-07-25T17:59:12.085Z,99811.89
2018-07-25T18:01:42.101Z,99817.58
2018-07-25T18:04:12.189Z,99818.02
2018-07-25T18:06:41.944Z,99808.48
2018-07-25T18:09:11.924Z,99816.05
2018-07-25T18:11:41.979Z,99819.20
2018-07-25T18:14:13.421Z,99816.01
2018-07-25T18:16:44.373Z,99819.48
2018-07-25T18:19:15.492Z,99821.88
2018-07-25T18:21:45.588Z,99823.76
2018-07-25T18:24:15.347Z,99823.04
2018-07-25T18:26:45.116Z,99823.03
2018-07-25T18:29:15.242Z,99831.13
2018-07-25T18:31:45.238Z,99830.42
2018-07-25T18:34:14.941Z,99831.26
2018-07-25T18:36:44.672Z,99831.33
2018-07-25T18:39:14.503Z,99831.80
2018-07-25T18:41:44.974Z,99831.52
2018-07-25T18:44:15.300Z,99835.94
2018-07-25T18:46:45.709Z,99837.01
2018-07-25T18:49:15.875Z,99836.92
2018-07-25T18:51:45.591Z,99837.05
2018-07-25T18:54:15.336Z,99836.86
2018-07-25T18:56:45.083Z,99843.11
2018-07-25T18:59:14.784Z,99848.99
2018-07-25T19:01:44.628Z,99846.23
2018-07-25T19:04:14.320Z,99848.58
2018-07-25T19:06:44.120Z,99845.35
2018-07-25T19:09:15.379Z,99857.06
2018-07-25T19:11:45.827Z,99851.61
2018-07-25T19:14:20.738Z,99858.16
2018-07-25T19:16:50.513Z,99865.21
2018-07-25T19:19:20.547Z,99865.28
2018-07-25T19:21:50.318Z,99869.05
2018-07-25T19:24:20.031Z,99877.50
2018-07-25T19:26:49.723Z,99887.82
2018-07-25T19:29:19.431Z,99888.98
2018-07-25T19:31:49.137Z,99892.16
2018-07-25T19:34:19.003Z,99893.89
2018-07-25T19:36:48.776Z,99903.70
2018-07-25T19:39:18.497Z,99903.50
2018-07-25T19:41:48.235Z,99914.35
2018-07-25T19:44:18.200Z,99913.00
2018-07-25T19:46:47.920Z,99913.10
2018-07-25T19:49:17.987Z,99914.27
2018-07-25T19:51:48.840Z,99914.88
2018-07-25T19:54:18.785Z,99914.96
2018-07-25T19:56:51.720Z,99920.55
2018-07-25T19:59:22.227Z,99920.05
2018-07-25T20:01:52.803Z,99928.92
2018-07-25T20:04:23.781Z,99921.55
2018-07-25T20:06:53.587Z,99923.47
2018-07-25T20:09:23.332Z,99922.38
2018-07-25T20:11:53.041Z,99925.13
2018-07-25T20:14:27.845Z,99924.91
2018-07-25T20:16:57.686Z,99922.17
2018-07-25T20:19:27.383Z,99925.48
2018-07-25T20:21:57.803Z,99925.23
2018-07-25T20:24:27.487Z,99923.58
2018-07-25T20:26:57.494Z,99922.22
2018-07-25T20:29:27.542Z,99926.66
2018-07-25T20:31:57.281Z,99925.31
2018-07-25T20:34:26.940Z,99929.16
2018-07-25T20:36:56.599Z,99928.62
2018-07-25T20:39:26.351Z,99926.47
2018-07-25T20:41:56.065Z,99923.44
2018-07-25T20:44:25.736Z,99919.59
2018-07-25T20:46:55.809Z,99922.36
2018-07-25T20:49:25.520Z,99924.31
2018-07-25T20:51:55.623Z,99925.37
2018-07-25T20:54:25.876Z,99928.39
2018-07-25T20:56:56.005Z,99928.96
2018-07-25T20:59:25.712Z,99934.73
2018-07-25T21:01:56.040Z,99941.05
2018-07-25T21:04:25.753Z,99944.07
2018-07-25T21:06:55.479Z,99939.93
2018-07-25T21:09:25.277Z,99945.98
2018-07-25T21:11:55.372Z,99943.80
2018-07-25T21:14:25.136Z,99947.07
2018-07-25T21:16:54.797Z,99951.20
2018-07-25T21:19:24.593Z,99959.17
2018-07-25T21:21:54.831Z,99955.33
2018-07-25T21:24:24.928Z,99961.06
2018-07-25T21:26:54.701Z,99955.03
2018-07-25T21:29:24.436Z,99951.72
2018-07-25T21:31:54.552Z,99958.59
2018-07-25T21:34:24.815Z,99962.70
2018-07-25T21:36:54.765Z,99966.52
2018-07-25T21:39:24.535Z,99963.51
2018-07-25T21:41:54.249Z,99969.00
2018-07-25T21:44:24.009Z,99967.35
2018-07-25T21:46:54.175Z,99970.83
2018-07-25T21:49:24.581Z,99967.66
2018-07-25T21:51:54.707Z,99968.77
2018-07-25T21:54:24.797Z,99970.16
2018-07-25T21:56:54.932Z,99975.91
2018-07-25T21:59:24.727Z,99975.07
2018-07-25T22:01:54.901Z,99976.98
2018-07-25T22:04:25.056Z,99979.14
2018-07-25T22:06:55.114Z,99972.47
2018-07-25T22:09:24.867Z,99971.79
2018-07-25T22:11:54.611Z,99974.79
2018-07-25T22:14:24.303Z,99971.77
2018-07-25T22:16:54.325Z,99977.22
2018-07-25T22:19:24.346Z,99975.86
2018-07-25T22:21:54.121Z,99979.16
2018-07-25T22:24:24.521Z,99976.34
2018-07-25T22:26:54.270Z,99975.17
2018-07-25T22:29:23.999Z,99975.12
2018-07-25T22:31:53.688Z,99979.18
2018-07-25T22:34:23.871Z,99976.78
2018-07-25T22:36:54.041Z,99981.47
2018-07-25T22:39:23.789Z,99980.77
2018-07-25T22:41:54.007Z,99989.56
2018-07-25T22:44:23.780Z,99985.98
2018-07-25T22:46:53.934Z,99985.63
2018-07-25T22:49:23.710Z,99986.52
2018-07-25T22:51:53.429Z,99998.77
2018-07-25T22:54:23.159Z,100008.73
2018-07-25T22:56:52.844Z,100001.12
2018-07-25T22:59:22.821Z,100004.36
2018-07-25T23:01:52.845Z,100005.14
2018-07-25T23:04:22.565Z,100002.59
2018-07-25T23:06:52.376Z,100002.91
2018-07-25T23:09:22.104Z,100007.28
2018-07-25T23:11:51.841Z,100009.36
2018-07-25T23:14:21.811Z,100014.97
2018-07-25T23:16:51.556Z,100015.00
2018-07-25T23:19:21.232Z,100009.86
2018-07-25T23:21:50.956Z,100010.86
2018-07-25T23:24:21.076Z,100010.05
2018-07-25T23:26:51.279Z,100009.92
2018-07-25T23:29:21.523Z,100009.46
2018-07-25T23:31:51.493Z,100009.58
2018-07-25T23:34:21.241Z,100019.52
2018-07-25T23:36:50.945Z,100009.36
2018-07-25T23:39:20.657Z,100006.09
2018-07-25T23:41:50.442Z,100014.27
2018-07-25T23:44:20.135Z,100015.68
2018-07-25T23:46:50.217Z,100019.87
2018-07-25T23:49:19.902Z,100021.90
2018-07-25T23:51:50.013Z,100016.87
2018-07-25T23:54:19.761Z,100020.45
2018-07-25T23:56:49.455Z,100012.69
2018-07-25T23:59:19.190Z,100015.20
